sensor_id;sensor_type;location;lat;lon;timestamp;P1;durP1;ratioP1;P2;durP2;ratioP2
70825;SDS011;58446;41.490;22.098;2024-03-08T00:02:23;26.00;;;14.70;;
70825;SDS011;58446;41.490;22.098;2024-03-08T00:04:49;25.67;;;15.17;;
70825;SDS011;58446;41.490;22.098;2024-03-08T00:07:15;40.40;;;22.60;;
70825;SDS011;58446;41.490;22.098;2024-03-08T00:09:40;24.25;;;12.48;;
70825;SDS011;58446;41.490;22.098;2024-03-08T00:12:06;25.40;;;13.93;;
70825;SDS011;58446;41.490;22.098;2024-03-08T00:14:32;28.10;;;15.55;;
70825;SDS011;58446;41.490;22.098;2024-03-08T00:16:58;25.33;;;13.65;;
70825;SDS011;58446;41.490;22.098;2024-03-08T00:19:24;25.60;;;12.93;;
70825;SDS011;58446;41.490;22.098;2024-03-08T00:21:49;12.45;;;7.65;;
70825;SDS011;58446;41.490;22.098;2024-03-08T00:24:15;8.57;;;4.70;;
70825;SDS011;58446;41.490;22.098;2024-03-08T00:26:41;7.30;;;3.78;;
70825;SDS011;58446;41.490;22.098;2024-03-08T00:29:09;12.35;;;6.75;;
70825;SDS011;58446;41.490;22.098;2024-03-08T00:31:35;8.60;;;4.43;;
70825;SDS011;58446;41.490;22.098;2024-03-08T00:34:01;11.77;;;6.77;;
70825;SDS011;58446;41.490;22.098;2024-03-08T00:36:26;14.30;;;6.00;;
70825;SDS011;58446;41.490;22.098;2024-03-08T00:38:55;8.57;;;4.90;;
70825;SDS011;58446;41.490;22.098;2024-03-08T00:41:20;11.77;;;4.80;;
70825;SDS011;58446;41.490;22.098;2024-03-08T00:43:46;6.30;;;4.10;;
70825;SDS011;58446;41.490;22.098;2024-03-08T00:46:12;8.38;;;4.35;;
70825;SDS011;58446;41.490;22.098;2024-03-08T00:48:40;7.63;;;3.97;;
70825;SDS011;58446;41.490;22.098;2024-03-08T00:51:08;6.80;;;3.90;;
70825;SDS011;58446;41.490;22.098;2024-03-08T00:53:34;8.50;;;4.13;;
70825;SDS011;58446;41.490;22.098;2024-03-08T00:55:59;9.67;;;4.00;;
70825;SDS011;58446;41.490;22.098;2024-03-08T00:58:25;7.13;;;4.07;;
70825;SDS011;58446;41.490;22.098;2024-03-08T01:00:51;6.40;;;3.50;;
70825;SDS011;58446;41.490;22.098;2024-03-08T01:03:16;6.70;;;3.45;;
70825;SDS011;58446;41.490;22.098;2024-03-08T01:05:42;6.67;;;3.70;;
70825;SDS011;58446;41.490;22.098;2024-03-08T01:08:08;7.80;;;4.15;;
70825;SDS011;58446;41.490;22.098;2024-03-08T01:10:36;7.50;;;3.77;;
70825;SDS011;58446;41.490;22.098;2024-03-08T01:13:02;6.13;;;3.65;;
70825;SDS011;58446;41.490;22.098;2024-03-08T01:15:28;7.13;;;4.25;;
70825;SDS011;58446;41.490;22.098;2024-03-08T01:17:54;6.23;;;3.80;;
70825;SDS011;58446;41.490;22.098;2024-03-08T01:20:19;7.85;;;3.70;;
70825;SDS011;58446;41.490;22.098;2024-03-08T01:22:46;6.40;;;3.67;;
70825;SDS011;58446;41.490;22.098;2024-03-08T01:25:11;9.20;;;4.40;;
70825;SDS011;58446;41.490;22.098;2024-03-08T01:27:37;7.13;;;4.20;;
70825;SDS011;58446;41.490;22.098;2024-03-08T01:30:03;9.17;;;4.43;;
70825;SDS011;58446;41.490;22.098;2024-03-08T01:32:29;7.80;;;4.13;;
70825;SDS011;58446;41.490;22.098;2024-03-08T01:34:55;8.13;;;4.73;;
70825;SDS011;58446;41.490;22.098;2024-03-08T01:37:21;9.07;;;4.45;;
70825;SDS011;58446;41.490;22.098;2024-03-08T01:39:46;6.93;;;4.17;;
70825;SDS011;58446;41.490;22.098;2024-03-08T01:42:13;7.85;;;4.30;;
70825;SDS011;58446;41.490;22.098;2024-03-08T01:44:40;6.82;;;4.00;;
70825;SDS011;58446;41.490;22.098;2024-03-08T01:47:06;6.90;;;3.83;;
70825;SDS011;58446;41.490;22.098;2024-03-08T01:49:32;6.80;;;4.20;;
70825;SDS011;58446;41.490;22.098;2024-03-08T01:51:58;7.07;;;4.32;;
70825;SDS011;58446;41.490;22.098;2024-03-08T01:54:24;6.53;;;4.25;;
70825;SDS011;58446;41.490;22.098;2024-03-08T01:56:51;7.45;;;4.85;;
70825;SDS011;58446;41.490;22.098;2024-03-08T01:59:18;8.07;;;4.83;;
70825;SDS011;58446;41.490;22.098;2024-03-08T02:01:44;8.65;;;5.03;;
70825;SDS011;58446;41.490;22.098;2024-03-08T02:04:10;12.98;;;6.55;;
70825;SDS011;58446;41.490;22.098;2024-03-08T02:06:36;11.10;;;7.45;;
70825;SDS011;58446;41.490;22.098;2024-03-08T02:09:03;12.30;;;8.70;;
70825;SDS011;58446;41.490;22.098;2024-03-08T02:11:32;17.65;;;12.20;;
70825;SDS011;58446;41.490;22.098;2024-03-08T02:13:59;19.20;;;14.07;;
70825;SDS011;58446;41.490;22.098;2024-03-08T02:16:25;19.75;;;14.00;;
70825;SDS011;58446;41.490;22.098;2024-03-08T02:18:50;19.50;;;13.87;;
70825;SDS011;58446;41.490;22.098;2024-03-08T02:21:17;19.02;;;13.48;;
70825;SDS011;58446;41.490;22.098;2024-03-08T02:23:46;19.85;;;12.60;;
70825;SDS011;58446;41.490;22.098;2024-03-08T02:26:12;16.83;;;11.97;;
70825;SDS011;58446;41.490;22.098;2024-03-08T02:28:37;17.45;;;10.68;;
70825;SDS011;58446;41.490;22.098;2024-03-08T02:31:04;15.77;;;10.45;;
70825;SDS011;58446;41.490;22.098;2024-03-08T02:33:33;14.30;;;9.77;;
70825;SDS011;58446;41.490;22.098;2024-03-08T02:35:59;15.07;;;9.18;;
70825;SDS011;58446;41.490;22.098;2024-03-08T02:38:25;14.50;;;9.27;;
70825;SDS011;58446;41.490;22.098;2024-03-08T02:40:51;13.33;;;9.00;;
70825;SDS011;58446;41.490;22.098;2024-03-08T02:43:18;14.57;;;8.98;;
70825;SDS011;58446;41.490;22.098;2024-03-08T02:45:45;13.02;;;9.18;;
70825;SDS011;58446;41.490;22.098;2024-03-08T02:48:11;13.82;;;9.00;;
70825;SDS011;58446;41.490;22.098;2024-03-08T02:50:37;12.48;;;8.48;;
70825;SDS011;58446;41.490;22.098;2024-03-08T02:53:05;14.57;;;8.60;;
70825;SDS011;58446;41.490;22.098;2024-03-08T02:55:31;10.23;;;7.22;;
70825;SDS011;58446;41.490;22.098;2024-03-08T02:58:01;13.90;;;9.93;;
70825;SDS011;58446;41.490;22.098;2024-03-08T03:00:30;12.90;;;8.77;;
70825;SDS011;58446;41.490;22.098;2024-03-08T03:02:56;14.65;;;9.50;;
70825;SDS011;58446;41.490;22.098;2024-03-08T03:05:23;13.60;;;9.70;;
70825;SDS011;58446;41.490;22.098;2024-03-08T03:07:49;13.48;;;9.65;;
70825;SDS011;58446;41.490;22.098;2024-03-08T03:10:18;15.38;;;10.02;;
70825;SDS011;58446;41.490;22.098;2024-03-08T03:12:45;13.98;;;9.80;;
70825;SDS011;58446;41.490;22.098;2024-03-08T03:15:11;14.57;;;10.25;;
70825;SDS011;58446;41.490;22.098;2024-03-08T03:17:38;14.63;;;9.83;;
70825;SDS011;58446;41.490;22.098;2024-03-08T03:20:06;16.52;;;10.30;;
70825;SDS011;58446;41.490;22.098;2024-03-08T03:22:35;19.60;;;12.23;;
70825;SDS011;58446;41.490;22.098;2024-03-08T03:25:02;15.75;;;9.75;;
70825;SDS011;58446;41.490;22.098;2024-03-08T03:27:32;18.88;;;12.23;;
70825;SDS011;58446;41.490;22.098;2024-03-08T03:29:57;15.50;;;10.07;;
70825;SDS011;58446;41.490;22.098;2024-03-08T03:32:23;15.38;;;10.02;;
70825;SDS011;58446;41.490;22.098;2024-03-08T03:34:49;18.42;;;10.93;;
70825;SDS011;58446;41.490;22.098;2024-03-08T03:37:18;17.10;;;11.93;;
70825;SDS011;58446;41.490;22.098;2024-03-08T03:39:44;18.45;;;11.75;;
70825;SDS011;58446;41.490;22.098;2024-03-08T03:42:18;17.55;;;11.43;;
70825;SDS011;58446;41.490;22.098;2024-03-08T03:44:48;20.10;;;11.57;;
70825;SDS011;58446;41.490;22.098;2024-03-08T03:47:14;19.35;;;12.00;;
70825;SDS011;58446;41.490;22.098;2024-03-08T03:49:41;18.60;;;11.33;;
70825;SDS011;58446;41.490;22.098;2024-03-08T03:52:09;17.95;;;11.13;;
70825;SDS011;58446;41.490;22.098;2024-03-08T03:54:35;17.95;;;10.63;;
70825;SDS011;58446;41.490;22.098;2024-03-08T03:57:01;15.55;;;8.75;;
70825;SDS011;58446;41.490;22.098;2024-03-08T03:59:28;16.25;;;10.50;;
70825;SDS011;58446;41.490;22.098;2024-03-08T04:01:54;15.83;;;10.33;;
70825;SDS011;58446;41.490;22.098;2024-03-08T04:04:20;14.60;;;9.75;;
70825;SDS011;58446;41.490;22.098;2024-03-08T04:06:46;14.60;;;8.90;;
70825;SDS011;58446;41.490;22.098;2024-03-08T04:09:12;14.77;;;9.20;;
70825;SDS011;58446;41.490;22.098;2024-03-08T04:11:38;14.43;;;8.95;;
70825;SDS011;58446;41.490;22.098;2024-03-08T04:14:04;13.30;;;8.00;;
70825;SDS011;58446;41.490;22.098;2024-03-08T04:16:30;11.85;;;7.88;;
70825;SDS011;58446;41.490;22.098;2024-03-08T04:18:57;11.40;;;7.50;;
70825;SDS011;58446;41.490;22.098;2024-03-08T04:21:32;13.57;;;8.18;;
70825;SDS011;58446;41.490;22.098;2024-03-08T04:23:57;12.70;;;8.20;;
70825;SDS011;58446;41.490;22.098;2024-03-08T04:26:23;10.53;;;7.30;;
70825;SDS011;58446;41.490;22.098;2024-03-08T04:28:49;10.48;;;6.95;;
70825;SDS011;58446;41.490;22.098;2024-03-08T04:31:14;13.13;;;7.10;;
70825;SDS011;58446;41.490;22.098;2024-03-08T04:33:40;12.65;;;6.60;;
70825;SDS011;58446;41.490;22.098;2024-03-08T04:36:06;10.50;;;6.40;;
70825;SDS011;58446;41.490;22.098;2024-03-08T04:38:32;9.97;;;5.30;;
70825;SDS011;58446;41.490;22.098;2024-03-08T04:40:59;8.23;;;5.32;;
70825;SDS011;58446;41.490;22.098;2024-03-08T04:43:27;7.30;;;4.82;;
70825;SDS011;58446;41.490;22.098;2024-03-08T04:45:55;9.63;;;5.63;;
70825;SDS011;58446;41.490;22.098;2024-03-08T04:48:21;9.00;;;5.20;;
70825;SDS011;58446;41.490;22.098;2024-03-08T04:50:46;10.87;;;5.87;;
70825;SDS011;58446;41.490;22.098;2024-03-08T04:53:12;32.63;;;11.60;;
70825;SDS011;58446;41.490;22.098;2024-03-08T04:55:38;18.45;;;8.40;;
70825;SDS011;58446;41.490;22.098;2024-03-08T04:58:04;11.60;;;6.40;;
70825;SDS011;58446;41.490;22.098;2024-03-08T05:00:32;16.98;;;8.32;;
70825;SDS011;58446;41.490;22.098;2024-03-08T05:02:58;22.85;;;9.63;;
70825;SDS011;58446;41.490;22.098;2024-03-08T05:05:24;23.17;;;9.33;;
70825;SDS011;58446;41.490;22.098;2024-03-08T05:07:51;14.30;;;7.47;;
70825;SDS011;58446;41.490;22.098;2024-03-08T05:10:16;21.55;;;9.50;;
70825;SDS011;58446;41.490;22.098;2024-03-08T05:12:42;15.97;;;7.50;;
70825;SDS011;58446;41.490;22.098;2024-03-08T05:15:08;13.65;;;7.20;;
70825;SDS011;58446;41.490;22.098;2024-03-08T05:17:34;12.57;;;7.85;;
70825;SDS011;58446;41.490;22.098;2024-03-08T05:20:00;10.10;;;6.50;;
70825;SDS011;58446;41.490;22.098;2024-03-08T05:22:26;11.85;;;5.80;;
70825;SDS011;58446;41.490;22.098;2024-03-08T05:24:51;10.70;;;6.13;;
70825;SDS011;58446;41.490;22.098;2024-03-08T05:27:17;9.60;;;6.03;;
70825;SDS011;58446;41.490;22.098;2024-03-08T05:29:43;10.03;;;5.47;;
70825;SDS011;58446;41.490;22.098;2024-03-08T05:32:08;11.07;;;5.90;;
70825;SDS011;58446;41.490;22.098;2024-03-08T05:34:35;13.17;;;5.73;;
70825;SDS011;58446;41.490;22.098;2024-03-08T05:37:01;10.38;;;5.70;;
70825;SDS011;58446;41.490;22.098;2024-03-08T05:39:27;9.27;;;5.80;;
70825;SDS011;58446;41.490;22.098;2024-03-08T05:41:53;13.37;;;6.03;;
70825;SDS011;58446;41.490;22.098;2024-03-08T05:44:20;15.82;;;9.88;;
70825;SDS011;58446;41.490;22.098;2024-03-08T05:46:46;14.02;;;7.60;;
70825;SDS011;58446;41.490;22.098;2024-03-08T05:49:11;14.67;;;8.70;;
70825;SDS011;58446;41.490;22.098;2024-03-08T05:51:38;13.35;;;6.80;;
70825;SDS011;58446;41.490;22.098;2024-03-08T05:54:06;16.92;;;6.80;;
70825;SDS011;58446;41.490;22.098;2024-03-08T05:56:36;13.93;;;6.22;;
70825;SDS011;58446;41.490;22.098;2024-03-08T05:59:02;10.27;;;5.33;;
70825;SDS011;58446;41.490;22.098;2024-03-08T06:01:28;10.90;;;5.70;;
70825;SDS011;58446;41.490;22.098;2024-03-08T06:03:54;11.55;;;6.68;;
70825;SDS011;58446;41.490;22.098;2024-03-08T06:06:24;9.53;;;5.00;;
70825;SDS011;58446;41.490;22.098;2024-03-08T06:08:51;11.35;;;5.53;;
70825;SDS011;58446;41.490;22.098;2024-03-08T06:11:17;12.60;;;5.60;;
70825;SDS011;58446;41.490;22.098;2024-03-08T06:13:45;13.80;;;5.25;;
70825;SDS011;58446;41.490;22.098;2024-03-08T06:16:12;9.68;;;5.53;;
70825;SDS011;58446;41.490;22.098;2024-03-08T06:18:37;7.00;;;3.93;;
70825;SDS011;58446;41.490;22.098;2024-03-08T06:21:06;9.48;;;5.38;;
70825;SDS011;58446;41.490;22.098;2024-03-08T06:23:34;8.85;;;5.10;;
70825;SDS011;58446;41.490;22.098;2024-03-08T06:26:06;7.63;;;4.55;;
70825;SDS011;58446;41.490;22.098;2024-03-08T06:28:34;7.10;;;3.92;;
70825;SDS011;58446;41.490;22.098;2024-03-08T06:31:00;8.63;;;4.63;;
70825;SDS011;58446;41.490;22.098;2024-03-08T06:33:27;9.27;;;4.80;;
70825;SDS011;58446;41.490;22.098;2024-03-08T06:35:53;7.55;;;4.65;;
70825;SDS011;58446;41.490;22.098;2024-03-08T06:38:22;7.77;;;4.50;;
70825;SDS011;58446;41.490;22.098;2024-03-08T06:40:51;8.50;;;4.68;;
70825;SDS011;58446;41.490;22.098;2024-03-08T06:43:17;7.82;;;4.65;;
70825;SDS011;58446;41.490;22.098;2024-03-08T06:45:44;7.55;;;4.47;;
70825;SDS011;58446;41.490;22.098;2024-03-08T06:48:18;8.13;;;4.55;;
70825;SDS011;58446;41.490;22.098;2024-03-08T06:50:44;7.23;;;4.60;;
70825;SDS011;58446;41.490;22.098;2024-03-08T06:53:11;7.32;;;4.07;;
70825;SDS011;58446;41.490;22.098;2024-03-08T06:55:37;6.70;;;4.75;;
70825;SDS011;58446;41.490;22.098;2024-03-08T06:58:03;8.18;;;4.82;;
70825;SDS011;58446;41.490;22.098;2024-03-08T07:00:29;7.20;;;4.87;;
70825;SDS011;58446;41.490;22.098;2024-03-08T07:02:56;9.20;;;5.00;;
70825;SDS011;58446;41.490;22.098;2024-03-08T07:05:26;8.20;;;4.70;;
70825;SDS011;58446;41.490;22.098;2024-03-08T07:07:52;9.63;;;4.50;;
70825;SDS011;58446;41.490;22.098;2024-03-08T07:10:21;7.75;;;4.82;;
70825;SDS011;58446;41.490;22.098;2024-03-08T07:12:58;8.40;;;5.10;;
70825;SDS011;58446;41.490;22.098;2024-03-08T07:15:27;7.50;;;4.57;;
70825;SDS011;58446;41.490;22.098;2024-03-08T07:20:40;9.10;;;4.65;;
70825;SDS011;58446;41.490;22.098;2024-03-08T07:23:09;9.48;;;5.50;;
70825;SDS011;58446;41.490;22.098;2024-03-08T07:25:39;10.00;;;5.70;;
70825;SDS011;58446;41.490;22.098;2024-03-08T07:28:07;8.90;;;5.55;;
70825;SDS011;58446;41.490;22.098;2024-03-08T07:30:39;10.75;;;7.03;;
70825;SDS011;58446;41.490;22.098;2024-03-08T07:33:10;12.68;;;7.22;;
70825;SDS011;58446;41.490;22.098;2024-03-08T07:35:38;11.00;;;5.75;;
70825;SDS011;58446;41.490;22.098;2024-03-08T07:38:09;9.00;;;5.70;;
70825;SDS011;58446;41.490;22.098;2024-03-08T07:40:40;9.25;;;5.65;;
70825;SDS011;58446;41.490;22.098;2024-03-08T07:43:09;9.45;;;6.22;;
70825;SDS011;58446;41.490;22.098;2024-03-08T07:45:39;12.15;;;5.80;;
70825;SDS011;58446;41.490;22.098;2024-03-08T07:48:05;10.48;;;5.45;;
70825;SDS011;58446;41.490;22.098;2024-03-08T07:50:36;11.83;;;7.17;;
70825;SDS011;58446;41.490;22.098;2024-03-08T07:53:04;11.43;;;6.63;;
70825;SDS011;58446;41.490;22.098;2024-03-08T07:55:31;44.70;;;19.80;;
70825;SDS011;58446;41.490;22.098;2024-03-08T07:57:58;15.65;;;8.65;;
70825;SDS011;58446;41.490;22.098;2024-03-08T08:00:24;10.25;;;5.30;;
70825;SDS011;58446;41.490;22.098;2024-03-08T08:02:52;11.07;;;6.20;;
70825;SDS011;58446;41.490;22.098;2024-03-08T08:05:18;9.95;;;5.60;;
70825;SDS011;58446;41.490;22.098;2024-03-08T08:07:44;9.95;;;6.13;;
70825;SDS011;58446;41.490;22.098;2024-03-08T08:10:12;8.23;;;5.35;;
70825;SDS011;58446;41.490;22.098;2024-03-08T08:12:43;11.03;;;5.53;;
70825;SDS011;58446;41.490;22.098;2024-03-08T08:15:10;10.80;;;6.53;;
70825;SDS011;58446;41.490;22.098;2024-03-08T08:17:35;9.48;;;5.88;;
70825;SDS011;58446;41.490;22.098;2024-03-08T08:20:01;8.30;;;5.50;;
70825;SDS011;58446;41.490;22.098;2024-03-08T08:22:30;9.95;;;6.45;;
70825;SDS011;58446;41.490;22.098;2024-03-08T08:24:56;10.18;;;6.20;;
70825;SDS011;58446;41.490;22.098;2024-03-08T08:27:22;10.37;;;5.80;;
70825;SDS011;58446;41.490;22.098;2024-03-08T08:29:47;8.55;;;5.18;;
70825;SDS011;58446;41.490;22.098;2024-03-08T08:32:14;10.00;;;5.18;;
70825;SDS011;58446;41.490;22.098;2024-03-08T08:34:40;8.47;;;5.40;;
70825;SDS011;58446;41.490;22.098;2024-03-08T08:37:07;9.23;;;5.55;;
70825;SDS011;58446;41.490;22.098;2024-03-08T08:39:34;8.30;;;5.43;;
70825;SDS011;58446;41.490;22.098;2024-03-08T08:42:00;9.02;;;5.28;;
70825;SDS011;58446;41.490;22.098;2024-03-08T08:44:28;7.80;;;5.10;;
70825;SDS011;58446;41.490;22.098;2024-03-08T08:46:55;10.88;;;5.53;;
70825;SDS011;58446;41.490;22.098;2024-03-08T08:49:21;8.93;;;5.88;;
70825;SDS011;58446;41.490;22.098;2024-03-08T08:51:50;8.97;;;5.37;;
70825;SDS011;58446;41.490;22.098;2024-03-08T08:54:16;8.50;;;5.78;;
70825;SDS011;58446;41.490;22.098;2024-03-08T08:56:42;9.13;;;4.80;;
70825;SDS011;58446;41.490;22.098;2024-03-08T08:59:14;7.97;;;5.40;;
70825;SDS011;58446;41.490;22.098;2024-03-08T09:01:44;7.28;;;4.97;;
70825;SDS011;58446;41.490;22.098;2024-03-08T09:04:12;6.88;;;3.90;;
70825;SDS011;58446;41.490;22.098;2024-03-08T09:06:39;10.38;;;5.80;;
70825;SDS011;58446;41.490;22.098;2024-03-08T09:09:09;8.80;;;4.63;;
70825;SDS011;58446;41.490;22.098;2024-03-08T09:11:36;7.93;;;4.37;;
70825;SDS011;58446;41.490;22.098;2024-03-08T09:14:06;8.02;;;4.25;;
70825;SDS011;58446;41.490;22.098;2024-03-08T09:16:32;8.52;;;5.45;;
70825;SDS011;58446;41.490;22.098;2024-03-08T09:18:58;8.40;;;5.20;;
70825;SDS011;58446;41.490;22.098;2024-03-08T09:21:27;8.57;;;5.18;;
70825;SDS011;58446;41.490;22.098;2024-03-08T09:23:53;10.50;;;6.22;;
70825;SDS011;58446;41.490;22.098;2024-03-08T09:26:19;10.87;;;5.87;;
70825;SDS011;58446;41.490;22.098;2024-03-08T09:28:45;8.23;;;5.30;;
70825;SDS011;58446;41.490;22.098;2024-03-08T09:31:11;9.57;;;5.25;;
70825;SDS011;58446;41.490;22.098;2024-03-08T09:33:37;11.18;;;6.70;;
70825;SDS011;58446;41.490;22.098;2024-03-08T09:36:05;13.45;;;7.40;;
70825;SDS011;58446;41.490;22.098;2024-03-08T09:38:32;15.07;;;10.67;;
70825;SDS011;58446;41.490;22.098;2024-03-08T09:41:01;10.90;;;5.47;;
70825;SDS011;58446;41.490;22.098;2024-03-08T09:43:29;10.13;;;5.80;;
70825;SDS011;58446;41.490;22.098;2024-03-08T09:45:55;9.43;;;5.00;;
70825;SDS011;58446;41.490;22.098;2024-03-08T09:48:22;8.60;;;4.32;;
70825;SDS011;58446;41.490;22.098;2024-03-08T09:50:48;8.40;;;4.43;;
70825;SDS011;58446;41.490;22.098;2024-03-08T09:53:14;6.85;;;3.72;;
70825;SDS011;58446;41.490;22.098;2024-03-08T09:55:41;9.23;;;4.85;;
70825;SDS011;58446;41.490;22.098;2024-03-08T09:58:10;8.13;;;4.43;;
70825;SDS011;58446;41.490;22.098;2024-03-08T10:00:46;8.47;;;4.37;;
70825;SDS011;58446;41.490;22.098;2024-03-08T10:03:12;7.65;;;4.13;;
70825;SDS011;58446;41.490;22.098;2024-03-08T10:05:40;11.30;;;4.78;;
70825;SDS011;58446;41.490;22.098;2024-03-08T10:08:06;7.25;;;4.30;;
70825;SDS011;58446;41.490;22.098;2024-03-08T10:10:35;8.73;;;4.70;;
70825;SDS011;58446;41.490;22.098;2024-03-08T10:13:05;8.20;;;3.73;;
70825;SDS011;58446;41.490;22.098;2024-03-08T10:15:33;10.05;;;5.40;;
70825;SDS011;58446;41.490;22.098;2024-03-08T10:17:58;9.95;;;4.75;;
70825;SDS011;58446;41.490;22.098;2024-03-08T10:20:25;7.23;;;3.97;;
70825;SDS011;58446;41.490;22.098;2024-03-08T10:22:53;9.00;;;4.20;;
70825;SDS011;58446;41.490;22.098;2024-03-08T10:25:19;11.27;;;5.93;;
70825;SDS011;58446;41.490;22.098;2024-03-08T10:27:45;8.97;;;3.90;;
70825;SDS011;58446;41.490;22.098;2024-03-08T10:30:15;9.05;;;4.95;;
70825;SDS011;58446;41.490;22.098;2024-03-08T10:32:46;8.27;;;4.88;;
70825;SDS011;58446;41.490;22.098;2024-03-08T10:35:12;7.97;;;3.83;;
70825;SDS011;58446;41.490;22.098;2024-03-08T10:37:44;7.95;;;4.90;;
70825;SDS011;58446;41.490;22.098;2024-03-08T10:40:20;8.70;;;4.07;;
70825;SDS011;58446;41.490;22.098;2024-03-08T10:50:50;10.63;;;5.30;;
70825;SDS011;58446;41.490;22.098;2024-03-08T10:53:18;7.73;;;4.30;;
70825;SDS011;58446;41.490;22.098;2024-03-08T10:55:47;10.35;;;6.20;;
70825;SDS011;58446;41.490;22.098;2024-03-08T10:58:14;8.40;;;5.05;;
70825;SDS011;58446;41.490;22.098;2024-03-08T11:00:42;7.85;;;4.97;;
70825;SDS011;58446;41.490;22.098;2024-03-08T11:03:14;7.30;;;4.57;;
70825;SDS011;58446;41.490;22.098;2024-03-08T11:06:18;11.10;;;5.57;;
70825;SDS011;58446;41.490;22.098;2024-03-08T11:08:48;8.07;;;4.18;;
70825;SDS011;58446;41.490;22.098;2024-03-08T11:11:25;6.50;;;3.47;;
70825;SDS011;58446;41.490;22.098;2024-03-08T11:13:58;7.50;;;3.67;;
70825;SDS011;58446;41.490;22.098;2024-03-08T11:18:54;12.97;;;6.23;;
70825;SDS011;58446;41.490;22.098;2024-03-08T11:21:35;9.88;;;4.60;;
70825;SDS011;58446;41.490;22.098;2024-03-08T11:24:09;9.18;;;4.80;;
70825;SDS011;58446;41.490;22.098;2024-03-08T11:26:41;7.97;;;4.28;;
70825;SDS011;58446;41.490;22.098;2024-03-08T11:32:04;5.50;;;3.03;;
70825;SDS011;58446;41.490;22.098;2024-03-08T11:34:37;6.50;;;3.47;;
70825;SDS011;58446;41.490;22.098;2024-03-08T11:37:15;7.45;;;3.33;;
70825;SDS011;58446;41.490;22.098;2024-03-08T11:39:52;6.43;;;3.08;;
70825;SDS011;58446;41.490;22.098;2024-03-08T11:42:24;5.57;;;2.80;;
70825;SDS011;58446;41.490;22.098;2024-03-08T11:44:51;6.60;;;3.20;;
70825;SDS011;58446;41.490;22.098;2024-03-08T11:47:17;5.93;;;3.45;;
70825;SDS011;58446;41.490;22.098;2024-03-08T11:49:44;6.65;;;3.58;;
70825;SDS011;58446;41.490;22.098;2024-03-08T11:52:13;5.80;;;3.30;;
70825;SDS011;58446;41.490;22.098;2024-03-08T11:54:39;7.80;;;3.80;;
70825;SDS011;58446;41.490;22.098;2024-03-08T11:57:17;7.20;;;3.40;;
70825;SDS011;58446;41.490;22.098;2024-03-08T11:59:49;5.90;;;3.00;;
70825;SDS011;58446;41.490;22.098;2024-03-08T12:02:16;5.53;;;2.60;;
70825;SDS011;58446;41.490;22.098;2024-03-08T12:04:43;6.97;;;3.38;;
70825;SDS011;58446;41.490;22.098;2024-03-08T12:07:11;5.53;;;3.25;;
70825;SDS011;58446;41.490;22.098;2024-03-08T12:09:40;6.90;;;3.40;;
70825;SDS011;58446;41.490;22.098;2024-03-08T12:12:06;5.82;;;3.13;;
70825;SDS011;58446;41.490;22.098;2024-03-08T12:14:33;7.40;;;4.25;;
70825;SDS011;58446;41.490;22.098;2024-03-08T12:16:59;6.38;;;3.33;;
70825;SDS011;58446;41.490;22.098;2024-03-08T12:19:28;6.35;;;3.63;;
70825;SDS011;58446;41.490;22.098;2024-03-08T12:21:54;6.80;;;2.90;;
70825;SDS011;58446;41.490;22.098;2024-03-08T12:24:20;7.38;;;3.50;;
70825;SDS011;58446;41.490;22.098;2024-03-08T12:26:47;8.48;;;4.60;;
70825;SDS011;58446;41.490;22.098;2024-03-08T12:31:59;6.72;;;3.80;;
70825;SDS011;58446;41.490;22.098;2024-03-08T12:34:30;6.97;;;3.30;;
70825;SDS011;58446;41.490;22.098;2024-03-08T12:36:57;7.88;;;3.70;;
70825;SDS011;58446;41.490;22.098;2024-03-08T12:39:23;8.35;;;4.32;;
70825;SDS011;58446;41.490;22.098;2024-03-08T12:41:52;7.55;;;3.45;;
70825;SDS011;58446;41.490;22.098;2024-03-08T12:44:19;6.20;;;3.00;;
70825;SDS011;58446;41.490;22.098;2024-03-08T12:46:46;15.73;;;7.23;;
70825;SDS011;58446;41.490;22.098;2024-03-08T12:49:13;11.65;;;5.85;;
70825;SDS011;58446;41.490;22.098;2024-03-08T12:51:45;9.25;;;5.22;;
70825;SDS011;58446;41.490;22.098;2024-03-08T12:54:11;6.97;;;3.40;;
70825;SDS011;58446;41.490;22.098;2024-03-08T12:56:37;6.20;;;3.10;;
70825;SDS011;58446;41.490;22.098;2024-03-08T12:59:03;6.90;;;2.90;;
70825;SDS011;58446;41.490;22.098;2024-03-08T13:01:30;5.25;;;2.22;;
70825;SDS011;58446;41.490;22.098;2024-03-08T13:04:02;7.05;;;2.80;;
70825;SDS011;58446;41.490;22.098;2024-03-08T13:06:28;6.70;;;3.15;;
70825;SDS011;58446;41.490;22.098;2024-03-08T13:08:56;5.57;;;2.30;;
70825;SDS011;58446;41.490;22.098;2024-03-08T13:11:23;5.15;;;2.50;;
70825;SDS011;58446;41.490;22.098;2024-03-08T13:13:50;5.35;;;3.00;;
70825;SDS011;58446;41.490;22.098;2024-03-08T13:16:17;7.28;;;3.00;;
70825;SDS011;58446;41.490;22.098;2024-03-08T13:18:44;11.85;;;5.85;;
70825;SDS011;58446;41.490;22.098;2024-03-08T13:21:14;11.17;;;6.43;;
70825;SDS011;58446;41.490;22.098;2024-03-08T13:23:43;9.50;;;4.90;;
70825;SDS011;58446;41.490;22.098;2024-03-08T13:26:15;8.15;;;3.65;;
70825;SDS011;58446;41.490;22.098;2024-03-08T13:28:42;11.73;;;6.63;;
70825;SDS011;58446;41.490;22.098;2024-03-08T13:31:11;8.63;;;5.05;;
70825;SDS011;58446;41.490;22.098;2024-03-08T13:33:37;5.80;;;2.43;;
70825;SDS011;58446;41.490;22.098;2024-03-08T13:36:07;7.75;;;3.90;;
70825;SDS011;58446;41.490;22.098;2024-03-08T13:38:49;8.00;;;3.92;;
70825;SDS011;58446;41.490;22.098;2024-03-08T13:41:15;5.95;;;3.08;;
70825;SDS011;58446;41.490;22.098;2024-03-08T13:43:42;7.40;;;4.10;;
70825;SDS011;58446;41.490;22.098;2024-03-08T13:46:11;13.27;;;7.43;;
70825;SDS011;58446;41.490;22.098;2024-03-08T13:48:37;19.73;;;14.07;;
70825;SDS011;58446;41.490;22.098;2024-03-08T13:51:04;14.38;;;9.63;;
70825;SDS011;58446;41.490;22.098;2024-03-08T13:53:31;12.07;;;7.80;;
70825;SDS011;58446;41.490;22.098;2024-03-08T13:55:58;11.20;;;6.07;;
70825;SDS011;58446;41.490;22.098;2024-03-08T13:58:25;13.10;;;7.95;;
70825;SDS011;58446;41.490;22.098;2024-03-08T14:00:51;9.00;;;4.38;;
70825;SDS011;58446;41.490;22.098;2024-03-08T14:03:17;7.00;;;3.60;;
70825;SDS011;58446;41.490;22.098;2024-03-08T14:05:43;8.83;;;6.13;;
70825;SDS011;58446;41.490;22.098;2024-03-08T14:08:10;7.80;;;4.05;;
70825;SDS011;58446;41.490;22.098;2024-03-08T14:10:37;8.38;;;4.57;;
70825;SDS011;58446;41.490;22.098;2024-03-08T14:13:03;7.68;;;3.88;;
70825;SDS011;58446;41.490;22.098;2024-03-08T14:15:34;5.80;;;3.03;;
70825;SDS011;58446;41.490;22.098;2024-03-08T14:18:00;6.47;;;3.58;;
70825;SDS011;58446;41.490;22.098;2024-03-08T14:20:26;6.75;;;3.85;;
70825;SDS011;58446;41.490;22.098;2024-03-08T14:22:53;7.35;;;3.78;;
70825;SDS011;58446;41.490;22.098;2024-03-08T14:25:22;9.27;;;3.97;;
70825;SDS011;58446;41.490;22.098;2024-03-08T14:27:51;6.03;;;3.33;;
70825;SDS011;58446;41.490;22.098;2024-03-08T14:30:23;7.85;;;4.18;;
70825;SDS011;58446;41.490;22.098;2024-03-08T14:32:59;6.38;;;3.30;;
70825;SDS011;58446;41.490;22.098;2024-03-08T14:35:26;7.97;;;4.15;;
70825;SDS011;58446;41.490;22.098;2024-03-08T14:37:52;14.53;;;8.80;;
70825;SDS011;58446;41.490;22.098;2024-03-08T14:40:18;15.57;;;7.88;;
70825;SDS011;58446;41.490;22.098;2024-03-08T14:42:48;10.15;;;5.93;;
70825;SDS011;58446;41.490;22.098;2024-03-08T14:45:15;9.43;;;6.45;;
70825;SDS011;58446;41.490;22.098;2024-03-08T14:47:41;22.73;;;16.08;;
70825;SDS011;58446;41.490;22.098;2024-03-08T14:50:07;8.60;;;5.13;;